sensor_id;sensor_type;location;lat;lon;timestamp;P1;durP1;ratioP1;P2;durP2;ratioP2
63444;SDS011;49573;47.682;9.170;2023-05-29T07:47:06;8.40;;;4.63;;
63444;SDS011;49573;47.682;9.170;2023-05-29T07:49:52;8.40;;;4.78;;
63444;SDS011;49573;47.682;9.170;2023-05-29T07:52:38;9.70;;;4.70;;
63444;SDS011;49573;47.682;9.170;2023-05-29T07:55:24;7.60;;;5.07;;
63444;SDS011;49573;47.682;9.170;2023-05-29T07:58:10;8.75;;;4.32;;
63444;SDS011;49573;47.682;9.170;2023-05-29T08:00:56;9.45;;;5.00;;
63444;SDS011;49573;47.682;9.170;2023-05-29T08:03:44;7.78;;;4.90;;
63444;SDS011;49573;47.682;9.170;2023-05-29T08:06:30;6.57;;;4.32;;
63444;SDS011;49573;47.682;9.170;2023-05-29T08:09:19;8.48;;;4.78;;
63444;SDS011;49573;47.682;9.170;2023-05-29T08:12:06;10.30;;;4.70;;
63444;SDS011;49573;47.682;9.170;2023-05-29T08:14:52;7.32;;;4.50;;
63444;SDS011;49573;47.682;9.170;2023-05-29T08:17:38;9.07;;;4.60;;
63444;SDS011;49573;47.682;9.170;2023-05-29T08:20:25;7.70;;;4.82;;
63444;SDS011;49573;47.682;9.170;2023-05-29T08:23:11;8.88;;;4.70;;
63444;SDS011;49573;47.682;9.170;2023-05-29T08:25:57;6.90;;;4.45;;
63444;SDS011;49573;47.682;9.170;2023-05-29T08:28:43;7.30;;;4.60;;
63444;SDS011;49573;47.682;9.170;2023-05-29T08:31:29;10.57;;;4.72;;
63444;SDS011;49573;47.682;9.170;2023-05-29T08:34:16;9.98;;;5.20;;
63444;SDS011;49573;47.682;9.170;2023-05-29T08:37:04;8.15;;;4.97;;
63444;SDS011;49573;47.682;9.170;2023-05-29T08:39:50;9.68;;;5.00;;
63444;SDS011;49573;47.682;9.170;2023-05-29T08:42:43;8.18;;;4.30;;
63444;SDS011;49573;47.682;9.170;2023-05-29T08:45:32;8.30;;;4.72;;
63444;SDS011;49573;47.682;9.170;2023-05-29T08:48:22;9.05;;;5.07;;
63444;SDS011;49573;47.682;9.170;2023-05-29T08:51:10;8.38;;;5.22;;
63444;SDS011;49573;47.682;9.170;2023-05-29T08:53:57;9.60;;;4.28;;
63444;SDS011;49573;47.682;9.170;2023-05-29T08:56:45;9.13;;;4.88;;
63444;SDS011;49573;47.682;9.170;2023-05-29T08:59:31;8.63;;;4.43;;
63444;SDS011;49573;47.682;9.170;2023-05-29T09:02:18;9.23;;;5.03;;
63444;SDS011;49573;47.682;9.170;2023-05-29T09:07:52;7.13;;;4.47;;
63444;SDS011;49573;47.682;9.170;2023-05-29T09:10:39;8.70;;;4.82;;
63444;SDS011;49573;47.682;9.170;2023-05-29T09:13:26;8.30;;;5.10;;
63444;SDS011;49573;47.682;9.170;2023-05-29T09:16:13;7.47;;;4.63;;
63444;SDS011;49573;47.682;9.170;2023-05-29T09:19:04;8.40;;;4.75;;
63444;SDS011;49573;47.682;9.170;2023-05-29T09:21:52;7.43;;;4.90;;
63444;SDS011;49573;47.682;9.170;2023-05-29T09:24:46;7.28;;;4.80;;
63444;SDS011;49573;47.682;9.170;2023-05-29T09:27:34;7.15;;;4.60;;
63444;SDS011;49573;47.682;9.170;2023-05-29T09:30:30;8.15;;;4.90;;
63444;SDS011;49573;47.682;9.170;2023-05-29T09:33:17;7.75;;;4.75;;
63444;SDS011;49573;47.682;9.170;2023-05-29T09:36:04;8.38;;;5.18;;
63444;SDS011;49573;47.682;9.170;2023-05-29T09:38:50;7.18;;;5.00;;
63444;SDS011;49573;47.682;9.170;2023-05-29T09:41:41;8.60;;;4.72;;
63444;SDS011;49573;47.682;9.170;2023-05-29T09:44:28;7.35;;;4.60;;
63444;SDS011;49573;47.682;9.170;2023-05-29T09:47:16;7.97;;;4.93;;
63444;SDS011;49573;47.682;9.170;2023-05-29T09:50:03;7.72;;;4.93;;
63444;SDS011;49573;47.682;9.170;2023-05-29T09:52:51;7.15;;;4.80;;
63444;SDS011;49573;47.682;9.170;2023-05-29T09:55:39;8.23;;;4.75;;
63444;SDS011;49573;47.682;9.170;2023-05-29T09:58:25;11.55;;;5.38;;
63444;SDS011;49573;47.682;9.170;2023-05-29T10:01:14;8.13;;;5.38;;
63444;SDS011;49573;47.682;9.170;2023-05-29T10:04:01;7.28;;;5.13;;
63444;SDS011;49573;47.682;9.170;2023-05-29T10:06:47;8.02;;;4.82;;
63444;SDS011;49573;47.682;9.170;2023-05-29T10:09:35;7.45;;;4.78;;
63444;SDS011;49573;47.682;9.170;2023-05-29T10:12:26;7.78;;;4.72;;
63444;SDS011;49573;47.682;9.170;2023-05-29T10:15:14;7.10;;;5.05;;
63444;SDS011;49573;47.682;9.170;2023-05-29T10:18:03;7.38;;;4.78;;
63444;SDS011;49573;47.682;9.170;2023-05-29T10:20:50;8.30;;;5.13;;
63444;SDS011;49573;47.682;9.170;2023-05-29T10:23:42;10.50;;;4.97;;
63444;SDS011;49573;47.682;9.170;2023-05-29T10:26:31;9.35;;;5.15;;
63444;SDS011;49573;47.682;9.170;2023-05-29T10:29:23;9.45;;;5.13;;
63444;SDS011;49573;47.682;9.170;2023-05-29T10:32:18;10.27;;;5.05;;
63444;SDS011;49573;47.682;9.170;2023-05-29T10:35:10;7.72;;;4.95;;
63444;SDS011;49573;47.682;9.170;2023-05-29T10:38:02;8.82;;;5.45;;
63444;SDS011;49573;47.682;9.170;2023-05-29T10:40:55;7.25;;;4.70;;
63444;SDS011;49573;47.682;9.170;2023-05-29T10:43:44;7.10;;;5.20;;
63444;SDS011;49573;47.682;9.170;2023-05-29T10:49:49;7.60;;;4.90;;
63444;SDS011;49573;47.682;9.170;2023-05-29T10:52:38;7.45;;;4.70;;
63444;SDS011;49573;47.682;9.170;2023-05-29T10:55:33;8.35;;;5.00;;
63444;SDS011;49573;47.682;9.170;2023-05-29T10:58:21;6.75;;;4.97;;
63444;SDS011;49573;47.682;9.170;2023-05-29T11:01:10;7.63;;;5.00;;
63444;SDS011;49573;47.682;9.170;2023-05-29T11:13:42;7.38;;;4.97;;
63444;SDS011;49573;47.682;9.170;2023-05-29T11:16:37;7.43;;;4.57;;
63444;SDS011;49573;47.682;9.170;2023-05-29T11:19:24;9.48;;;5.45;;
63444;SDS011;49573;47.682;9.170;2023-05-29T11:22:14;7.80;;;4.80;;
63444;SDS011;49573;47.682;9.170;2023-05-29T11:25:08;6.95;;;4.80;;
63444;SDS011;49573;47.682;9.170;2023-05-29T11:27:56;7.18;;;4.90;;
63444;SDS011;49573;47.682;9.170;2023-05-29T11:30:43;8.48;;;5.00;;
63444;SDS011;49573;47.682;9.170;2023-05-29T11:33:31;8.07;;;5.30;;
63444;SDS011;49573;47.682;9.170;2023-05-29T11:36:18;6.63;;;4.68;;
63444;SDS011;49573;47.682;9.170;2023-05-29T11:39:08;8.82;;;4.72;;
63444;SDS011;49573;47.682;9.170;2023-05-29T11:41:55;6.38;;;4.65;;
63444;SDS011;49573;47.682;9.170;2023-05-29T11:44:42;9.18;;;4.97;;
63444;SDS011;49573;47.682;9.170;2023-05-29T11:47:28;8.10;;;5.40;;
63444;SDS011;49573;47.682;9.170;2023-05-29T11:50:17;6.25;;;4.63;;
63444;SDS011;49573;47.682;9.170;2023-05-29T11:53:05;6.47;;;4.47;;
63444;SDS011;49573;47.682;9.170;2023-05-29T11:56:05;6.90;;;4.63;;
63444;SDS011;49573;47.682;9.170;2023-05-29T11:58:53;6.72;;;4.55;;
63444;SDS011;49573;47.682;9.170;2023-05-29T12:01:46;11.43;;;4.70;;
63444;SDS011;49573;47.682;9.170;2023-05-29T12:04:33;5.85;;;4.28;;
63444;SDS011;49573;47.682;9.170;2023-05-29T12:07:19;6.82;;;4.80;;
63444;SDS011;49573;47.682;9.170;2023-05-29T12:10:09;5.88;;;4.25;;
63444;SDS011;49573;47.682;9.170;2023-05-29T12:12:56;8.25;;;4.80;;
63444;SDS011;49573;47.682;9.170;2023-05-29T12:15:43;6.97;;;4.47;;
63444;SDS011;49573;47.682;9.170;2023-05-29T12:21:17;7.18;;;5.25;;
63444;SDS011;49573;47.682;9.170;2023-05-29T12:24:05;8.73;;;4.85;;
63444;SDS011;49573;47.682;9.170;2023-05-29T12:26:51;7.20;;;4.82;;
63444;SDS011;49573;47.682;9.170;2023-05-29T12:29:37;6.25;;;4.60;;
63444;SDS011;49573;47.682;9.170;2023-05-29T12:32:23;6.05;;;4.43;;
63444;SDS011;49573;47.682;9.170;2023-05-29T12:35:12;7.45;;;4.90;;
63444;SDS011;49573;47.682;9.170;2023-05-29T12:38:00;7.50;;;3.95;;
63444;SDS011;49573;47.682;9.170;2023-05-29T12:40:47;5.80;;;4.30;;
63444;SDS011;49573;47.682;9.170;2023-05-29T12:43:34;5.78;;;4.60;;
63444;SDS011;49573;47.682;9.170;2023-05-29T12:46:21;6.32;;;4.40;;
63444;SDS011;49573;47.682;9.170;2023-05-29T12:49:11;6.80;;;4.50;;
63444;SDS011;49573;47.682;9.170;2023-05-29T12:52:04;6.55;;;4.35;;
63444;SDS011;49573;47.682;9.170;2023-05-29T12:54:52;6.40;;;4.20;;
63444;SDS011;49573;47.682;9.170;2023-05-29T12:57:38;6.88;;;4.85;;
63444;SDS011;49573;47.682;9.170;2023-05-29T13:00:26;6.70;;;4.00;;
63444;SDS011;49573;47.682;9.170;2023-05-29T13:03:12;6.50;;;4.40;;
63444;SDS011;49573;47.682;9.170;2023-05-29T13:05:59;8.02;;;4.90;;
63444;SDS011;49573;47.682;9.170;2023-05-29T13:08:47;5.57;;;4.18;;
63444;SDS011;49573;47.682;9.170;2023-05-29T13:11:33;6.38;;;4.60;;
63444;SDS011;49573;47.682;9.170;2023-05-29T13:14:19;5.55;;;4.03;;
63444;SDS011;49573;47.682;9.170;2023-05-29T13:17:05;8.13;;;4.60;;
63444;SDS011;49573;47.682;9.170;2023-05-29T13:22:37;6.20;;;4.30;;
63444;SDS011;49573;47.682;9.170;2023-05-29T13:25:25;5.32;;;3.85;;
63444;SDS011;49573;47.682;9.170;2023-05-29T13:28:11;5.28;;;3.75;;
63444;SDS011;49573;47.682;9.170;2023-05-29T13:33:44;7.53;;;4.15;;
63444;SDS011;49573;47.682;9.170;2023-05-29T13:36:31;8.00;;;3.95;;
63444;SDS011;49573;47.682;9.170;2023-05-29T13:42:06;5.90;;;3.72;;
63444;SDS011;49573;47.682;9.170;2023-05-29T13:44:53;6.03;;;3.90;;
63444;SDS011;49573;47.682;9.170;2023-05-29T13:47:39;5.78;;;3.92;;
63444;SDS011;49573;47.682;9.170;2023-05-29T13:53:12;7.88;;;4.25;;
63444;SDS011;49573;47.682;9.170;2023-05-29T13:55:59;6.95;;;4.10;;
63444;SDS011;49573;47.682;9.170;2023-05-29T13:58:47;6.43;;;3.90;;
63444;SDS011;49573;47.682;9.170;2023-05-29T14:01:33;6.13;;;3.92;;
63444;SDS011;49573;47.682;9.170;2023-05-29T14:04:20;6.80;;;4.07;;
63444;SDS011;49573;47.682;9.170;2023-05-29T14:09:52;5.95;;;4.00;;
63444;SDS011;49573;47.682;9.170;2023-05-29T14:15:26;6.60;;;3.97;;
63444;SDS011;49573;47.682;9.170;2023-05-29T14:18:13;5.50;;;3.67;;
63444;SDS011;49573;47.682;9.170;2023-05-29T14:23:45;7.78;;;4.32;;
63444;SDS011;49573;47.682;9.170;2023-05-29T14:29:18;6.10;;;3.83;;
63444;SDS011;49573;47.682;9.170;2023-05-29T14:34:52;6.50;;;4.00;;
63444;SDS011;49573;47.682;9.170;2023-05-29T14:37:38;6.20;;;4.22;;
63444;SDS011;49573;47.682;9.170;2023-05-29T14:43:11;6.47;;;3.80;;
63444;SDS011;49573;47.682;9.170;2023-05-29T14:48:43;10.95;;;4.05;;
63444;SDS011;49573;47.682;9.170;2023-05-29T14:51:33;5.88;;;3.67;;
63444;SDS011;49573;47.682;9.170;2023-05-29T14:54:21;6.47;;;3.70;;
63444;SDS011;49573;47.682;9.170;2023-05-29T14:59:54;6.60;;;3.70;;
63444;SDS011;49573;47.682;9.170;2023-05-29T15:05:26;5.53;;;3.78;;
63444;SDS011;49573;47.682;9.170;2023-05-29T15:08:14;5.25;;;3.35;;
63444;SDS011;49573;47.682;9.170;2023-05-29T15:11:01;5.28;;;3.90;;
63444;SDS011;49573;47.682;9.170;2023-05-29T15:13:51;5.25;;;3.28;;
63444;SDS011;49573;47.682;9.170;2023-05-29T15:16:37;4.90;;;3.58;;
63444;SDS011;49573;47.682;9.170;2023-05-29T15:19:24;5.43;;;3.60;;
63444;SDS011;49573;47.682;9.170;2023-05-29T15:22:11;6.63;;;3.22;;
63444;SDS011;49573;47.682;9.170;2023-05-29T15:27:45;6.35;;;3.80;;
63444;SDS011;49573;47.682;9.170;2023-05-29T15:30:31;5.80;;;3.50;;
63444;SDS011;49573;47.682;9.170;2023-05-29T15:36:04;6.07;;;3.63;;
63444;SDS011;49573;47.682;9.170;2023-05-29T15:38:51;6.18;;;3.88;;
63444;SDS011;49573;47.682;9.170;2023-05-29T15:41:37;7.13;;;5.40;;
63444;SDS011;49573;47.682;9.170;2023-05-29T15:44:24;5.93;;;4.00;;
63444;SDS011;49573;47.682;9.170;2023-05-29T15:47:10;7.88;;;3.65;;
63444;SDS011;49573;47.682;9.170;2023-05-29T15:49:56;5.40;;;3.33;;
63444;SDS011;49573;47.682;9.170;2023-05-29T15:52:42;4.97;;;3.30;;
63444;SDS011;49573;47.682;9.170;2023-05-29T15:55:28;4.85;;;3.30;;
63444;SDS011;49573;47.682;9.170;2023-05-29T15:58:14;5.88;;;3.42;;
63444;SDS011;49573;47.682;9.170;2023-05-29T16:01:02;4.75;;;3.40;;
63444;SDS011;49573;47.682;9.170;2023-05-29T16:03:48;4.80;;;3.20;;
63444;SDS011;49573;47.682;9.170;2023-05-29T16:06:34;5.20;;;3.40;;
63444;SDS011;49573;47.682;9.170;2023-05-29T16:09:22;4.63;;;3.35;;
63444;SDS011;49573;47.682;9.170;2023-05-29T16:14:57;6.03;;;3.70;;
63444;SDS011;49573;47.682;9.170;2023-05-29T16:17:44;7.88;;;3.90;;
63444;SDS011;49573;47.682;9.170;2023-05-29T16:20:31;4.97;;;3.22;;
63444;SDS011;49573;47.682;9.170;2023-05-29T16:23:17;5.15;;;3.42;;
63444;SDS011;49573;47.682;9.170;2023-05-29T16:26:03;5.07;;;3.38;;
63444;SDS011;49573;47.682;9.170;2023-05-29T16:31:36;5.60;;;3.30;;
63444;SDS011;49573;47.682;9.170;2023-05-29T16:37:09;5.63;;;3.38;;
63444;SDS011;49573;47.682;9.170;2023-05-29T16:39:55;5.65;;;3.22;;
63444;SDS011;49573;47.682;9.170;2023-05-29T16:42:42;10.43;;;3.45;;
63444;SDS011;49573;47.682;9.170;2023-05-29T16:45:28;4.75;;;3.22;;
63444;SDS011;49573;47.682;9.170;2023-05-29T16:48:14;8.75;;;3.47;;
63444;SDS011;49573;47.682;9.170;2023-05-29T16:51:02;4.50;;;3.20;;
63444;SDS011;49573;47.682;9.170;2023-05-29T16:53:48;5.55;;;3.42;;
63444;SDS011;49573;47.682;9.170;2023-05-29T16:56:34;5.60;;;3.25;;
63444;SDS011;49573;47.682;9.170;2023-05-29T17:02:06;4.20;;;3.10;;
63444;SDS011;49573;47.682;9.170;2023-05-29T17:04:53;6.13;;;3.40;;
63444;SDS011;49573;47.682;9.170;2023-05-29T17:07:40;7.43;;;3.53;;
63444;SDS011;49573;47.682;9.170;2023-05-29T17:10:30;5.03;;;3.20;;
63444;SDS011;49573;47.682;9.170;2023-05-29T17:13:17;5.13;;;3.45;;
63444;SDS011;49573;47.682;9.170;2023-05-29T17:16:03;6.10;;;3.28;;
63444;SDS011;49573;47.682;9.170;2023-05-29T17:18:50;6.25;;;3.28;;
63444;SDS011;49573;47.682;9.170;2023-05-29T17:24:24;5.97;;;3.75;;
63444;SDS011;49573;47.682;9.170;2023-05-29T17:27:10;5.00;;;3.45;;
63444;SDS011;49573;47.682;9.170;2023-05-29T17:29:56;5.07;;;3.50;;
63444;SDS011;49573;47.682;9.170;2023-05-29T17:32:42;7.28;;;3.42;;
63444;SDS011;49573;47.682;9.170;2023-05-29T17:38:14;4.75;;;3.50;;
63444;SDS011;49573;47.682;9.170;2023-05-29T17:41:02;6.05;;;3.30;;
63444;SDS011;49573;47.682;9.170;2023-05-29T17:43:48;5.00;;;3.22;;
63444;SDS011;49573;47.682;9.170;2023-05-29T17:46:34;5.30;;;3.25;;
63444;SDS011;49573;47.682;9.170;2023-05-29T17:49:20;4.82;;;3.17;;
63444;SDS011;49573;47.682;9.170;2023-05-29T17:52:06;5.05;;;3.15;;
63444;SDS011;49573;47.682;9.170;2023-05-29T17:54:53;5.57;;;3.30;;
63444;SDS011;49573;47.682;9.170;2023-05-29T17:57:40;4.45;;;3.38;;
63444;SDS011;49573;47.682;9.170;2023-05-29T18:00:26;5.45;;;3.60;;
63444;SDS011;49573;47.682;9.170;2023-05-29T18:03:13;5.93;;;3.78;;
63444;SDS011;49573;47.682;9.170;2023-05-29T18:05:59;5.50;;;3.47;;
63444;SDS011;49573;47.682;9.170;2023-05-29T18:08:45;6.03;;;4.10;;
63444;SDS011;49573;47.682;9.170;2023-05-29T18:11:31;4.85;;;3.40;;
63444;SDS011;49573;47.682;9.170;2023-05-29T18:14:19;4.15;;;3.03;;
63444;SDS011;49573;47.682;9.170;2023-05-29T18:17:05;5.85;;;3.17;;
63444;SDS011;49573;47.682;9.170;2023-05-29T18:19:51;5.32;;;3.10;;
63444;SDS011;49573;47.682;9.170;2023-05-29T18:22:37;7.07;;;3.60;;
63444;SDS011;49573;47.682;9.170;2023-05-29T18:25:23;5.47;;;3.67;;
63444;SDS011;49573;47.682;9.170;2023-05-29T18:28:11;5.38;;;3.67;;
63444;SDS011;49573;47.682;9.170;2023-05-29T18:30:58;4.93;;;3.30;;
63444;SDS011;49573;47.682;9.170;2023-05-29T18:33:44;4.38;;;3.45;;
63444;SDS011;49573;47.682;9.170;2023-05-29T18:36:31;4.95;;;3.22;;
63444;SDS011;49573;47.682;9.170;2023-05-29T18:39:17;6.55;;;3.67;;
63444;SDS011;49573;47.682;9.170;2023-05-29T18:42:04;5.03;;;3.38;;
63444;SDS011;49573;47.682;9.170;2023-05-29T18:44:51;5.80;;;3.65;;
63444;SDS011;49573;47.682;9.170;2023-05-29T18:47:38;4.78;;;3.50;;
63444;SDS011;49573;47.682;9.170;2023-05-29T18:50:24;5.65;;;3.42;;
63444;SDS011;49573;47.682;9.170;2023-05-29T18:55:57;10.50;;;3.03;;
63444;SDS011;49573;47.682;9.170;2023-05-29T18:58:43;5.03;;;3.25;;
63444;SDS011;49573;47.682;9.170;2023-05-29T19:01:29;6.70;;;3.53;;
63444;SDS011;49573;47.682;9.170;2023-05-29T19:04:17;3.95;;;2.90;;
63444;SDS011;49573;47.682;9.170;2023-05-29T19:07:03;6.40;;;3.40;;
63444;SDS011;49573;47.682;9.170;2023-05-29T19:09:50;6.55;;;3.40;;
63444;SDS011;49573;47.682;9.170;2023-05-29T19:12:36;9.82;;;3.60;;
63444;SDS011;49573;47.682;9.170;2023-05-29T19:15:22;4.68;;;3.13;;
63444;SDS011;49573;47.682;9.170;2023-05-29T19:18:08;5.82;;;3.40;;
63444;SDS011;49573;47.682;9.170;2023-05-29T19:20:56;4.60;;;3.10;;
63444;SDS011;49573;47.682;9.170;2023-05-29T19:23:42;5.47;;;3.47;;
63444;SDS011;49573;47.682;9.170;2023-05-29T19:26:29;6.43;;;3.60;;
63444;SDS011;49573;47.682;9.170;2023-05-29T19:29:18;4.75;;;3.10;;
63444;SDS011;49573;47.682;9.170;2023-05-29T19:32:05;5.90;;;3.38;;
63444;SDS011;49573;47.682;9.170;2023-05-29T19:34:51;10.00;;;3.50;;
63444;SDS011;49573;47.682;9.170;2023-05-29T19:37:39;5.50;;;3.45;;
63444;SDS011;49573;47.682;9.170;2023-05-29T19:40:25;6.47;;;3.10;;
63444;SDS011;49573;47.682;9.170;2023-05-29T19:43:12;5.10;;;3.20;;
63444;SDS011;49573;47.682;9.170;2023-05-29T19:48:45;5.90;;;3.15;;
63444;SDS011;49573;47.682;9.170;2023-05-29T19:51:31;5.45;;;3.50;;
63444;SDS011;49573;47.682;9.170;2023-05-29T19:54:19;5.18;;;2.85;;
63444;SDS011;49573;47.682;9.170;2023-05-29T19:57:06;4.10;;;3.00;;
63444;SDS011;49573;47.682;9.170;2023-05-29T19:59:52;4.90;;;3.35;;
63444;SDS011;49573;47.682;9.170;2023-05-29T20:02:43;8.73;;;3.20;;
63444;SDS011;49573;47.682;9.170;2023-05-29T20:05:29;4.47;;;3.25;;
63444;SDS011;49573;47.682;9.170;2023-05-29T20:08:15;5.22;;;3.15;;
63444;SDS011;49573;47.682;9.170;2023-05-29T20:11:03;6.03;;;3.75;;
63444;SDS011;49573;47.682;9.170;2023-05-29T20:13:49;5.30;;;3.08;;
63444;SDS011;49573;47.682;9.170;2023-05-29T20:16:35;4.90;;;3.50;;
63444;SDS011;49573;47.682;9.170;2023-05-29T20:19:21;6.43;;;4.28;;
63444;SDS011;49573;47.682;9.170;2023-05-29T20:22:07;6.22;;;3.63;;
63444;SDS011;49573;47.682;9.170;2023-05-29T20:24:53;5.60;;;3.45;;
63444;SDS011;49573;47.682;9.170;2023-05-29T20:27:41;4.88;;;3.20;;
63444;SDS011;49573;47.682;9.170;2023-05-29T20:30:28;6.72;;;3.08;;
63444;SDS011;49573;47.682;9.170;2023-05-29T20:33:14;5.22;;;3.20;;
63444;SDS011;49573;47.682;9.170;2023-05-29T20:36:00;6.43;;;3.57;;
63444;SDS011;49573;47.682;9.170;2023-05-29T20:38:46;4.93;;;3.27;;
63444;SDS011;49573;47.682;9.170;2023-05-29T20:41:32;6.32;;;2.90;;
63444;SDS011;49573;47.682;9.170;2023-05-29T20:44:25;4.70;;;3.30;;
63444;SDS011;49573;47.682;9.170;2023-05-29T20:47:14;5.50;;;3.00;;
63444;SDS011;49573;47.682;9.170;2023-05-29T20:50:00;4.60;;;3.05;;
63444;SDS011;49573;47.682;9.170;2023-05-29T20:52:48;6.50;;;3.10;;
63444;SDS011;49573;47.682;9.170;2023-05-29T20:55:34;5.85;;;3.25;;
63444;SDS011;49573;47.682;9.170;2023-05-29T20:58:21;5.78;;;3.30;;
63444;SDS011;49573;47.682;9.170;2023-05-29T21:01:08;5.68;;;3.58;;
63444;SDS011;49573;47.682;9.170;2023-05-29T21:03:55;5.93;;;3.25;;
63444;SDS011;49573;47.682;9.170;2023-05-29T21:06:42;7.35;;;3.38;;
63444;SDS011;49573;47.682;9.170;2023-05-29T21:09:28;6.70;;;3.10;;
63444;SDS011;49573;47.682;9.170;2023-05-29T21:12:15;5.82;;;3.22;;
63444;SDS011;49573;47.682;9.170;2023-05-29T21:15:01;6.90;;;3.20;;
63444;SDS011;49573;47.682;9.170;2023-05-29T21:17:48;5.57;;;3.33;;
63444;SDS011;49573;47.682;9.170;2023-05-29T21:20:35;5.35;;;3.25;;
63444;SDS011;49573;47.682;9.170;2023-05-29T21:23:21;5.57;;;3.00;;
63444;SDS011;49573;47.682;9.170;2023-05-29T21:26:07;5.25;;;3.08;;
63444;SDS011;49573;47.682;9.170;2023-05-29T21:28:53;4.78;;;2.92;;
63444;SDS011;49573;47.682;9.170;2023-05-29T21:31:39;6.72;;;3.20;;
63444;SDS011;49573;47.682;9.170;2023-05-29T21:34:27;5.03;;;3.17;;
63444;SDS011;49573;47.682;9.170;2023-05-29T21:37:14;5.80;;;2.72;;
63444;SDS011;49573;47.682;9.170;2023-05-29T21:40:00;4.32;;;2.92;;
63444;SDS011;49573;47.682;9.170;2023-05-29T21:42:46;5.88;;;2.90;;
63444;SDS011;49573;47.682;9.170;2023-05-29T21:45:33;5.80;;;3.03;;
63444;SDS011;49573;47.682;9.170;2023-05-29T21:48:19;5.90;;;3.00;;
63444;SDS011;49573;47.682;9.170;2023-05-29T21:51:13;5.00;;;3.05;;
63444;SDS011;49573;47.682;9.170;2023-05-29T21:53:59;6.35;;;3.28;;
63444;SDS011;49573;47.682;9.170;2023-05-29T21:56:46;4.30;;;2.90;;
63444;SDS011;49573;47.682;9.170;2023-05-29T21:59:32;5.70;;;2.90;;
63444;SDS011;49573;47.682;9.170;2023-05-29T22:02:18;8.07;;;3.07;;
63444;SDS011;49573;47.682;9.170;2023-05-29T22:05:04;5.23;;;2.93;;
63444;SDS011;49573;47.682;9.170;2023-05-29T22:07:52;5.53;;;3.20;;
63444;SDS011;49573;47.682;9.170;2023-05-29T22:10:39;7.10;;;3.45;;
63444;SDS011;49573;47.682;9.170;2023-05-29T22:13:25;5.38;;;3.25;;
63444;SDS011;49573;47.682;9.170;2023-05-29T22:16:11;4.50;;;3.10;;
63444;SDS011;49573;47.682;9.170;2023-05-29T22:18:57;5.00;;;2.95;;
63444;SDS011;49573;47.682;9.170;2023-05-29T22:21:43;6.38;;;3.08;;
63444;SDS011;49573;47.682;9.170;2023-05-29T22:24:31;6.40;;;2.85;;
63444;SDS011;49573;47.682;9.170;2023-05-29T22:27:17;5.03;;;2.80;;
63444;SDS011;49573;47.682;9.170;2023-05-29T22:30:03;4.77;;;3.17;;
63444;SDS011;49573;47.682;9.170;2023-05-29T22:32:51;5.30;;;3.40;;
63444;SDS011;49573;47.682;9.170;2023-05-29T22:35:37;4.23;;;2.97;;
63444;SDS011;49573;47.682;9.170;2023-05-29T22:38:24;6.30;;;3.35;;
63444;SDS011;49573;47.682;9.170;2023-05-29T22:41:12;8.27;;;3.70;;
63444;SDS011;49573;47.682;9.170;2023-05-29T22:43:58;6.80;;;3.22;;
63444;SDS011;49573;47.682;9.170;2023-05-29T22:46:44;4.80;;;3.30;;
63444;SDS011;49573;47.682;9.170;2023-05-29T22:49:31;5.00;;;3.30;;
63444;SDS011;49573;47.682;9.170;2023-05-29T22:52:17;5.00;;;3.10;;
63444;SDS011;49573;47.682;9.170;2023-05-29T22:55:03;5.63;;;3.20;;
63444;SDS011;49573;47.682;9.170;2023-05-29T22:57:51;4.80;;;3.10;;
63444;SDS011;49573;47.682;9.170;2023-05-29T23:00:37;5.40;;;3.38;;
63444;SDS011;49573;47.682;9.170;2023-05-29T23:03:23;5.20;;;3.03;;
63444;SDS011;49573;47.682;9.170;2023-05-29T23:06:10;6.13;;;3.30;;
63444;SDS011;49573;47.682;9.170;2023-05-29T23:08:57;7.30;;;3.60;;
63444;SDS011;49573;47.682;9.170;2023-05-29T23:11:43;5.13;;;3.13;;
63444;SDS011;49573;47.682;9.170;2023-05-29T23:14:30;5.43;;;3.38;;
63444;SDS011;49573;47.682;9.170;2023-05-29T23:17:17;4.95;;;3.10;;
63444;SDS011;49573;47.682;9.170;2023-05-29T23:20:04;5.10;;;3.10;;
63444;SDS011;49573;47.682;9.170;2023-05-29T23:22:50;5.97;;;3.17;;
63444;SDS011;49573;47.682;9.170;2023-05-29T23:25:36;7.33;;;3.60;;
63444;SDS011;49573;47.682;9.170;2023-05-29T23:28:22;5.03;;;3.27;;
63444;SDS011;49573;47.682;9.170;2023-05-29T23:31:10;4.47;;;2.93;;
63444;SDS011;49573;47.682;9.170;2023-05-29T23:33:56;5.25;;;3.30;;
63444;SDS011;49573;47.682;9.170;2023-05-29T23:36:42;5.63;;;3.33;;
63444;SDS011;49573;47.682;9.170;2023-05-29T23:39:28;5.57;;;3.03;;
63444;SDS011;49573;47.682;9.170;2023-05-29T23:42:14;4.90;;;3.15;;
63444;SDS011;49573;47.682;9.170;2023-05-29T23:45:01;5.15;;;3.30;;
63444;SDS011;49573;47.682;9.170;2023-05-29T23:47:48;5.68;;;3.10;;
63444;SDS011;49573;47.682;9.170;2023-05-29T23:50:34;5.55;;;2.97;;
63444;SDS011;49573;47.682;9.170;2023-05-29T23:53:21;4.28;;;2.92;;
63444;SDS011;49573;47.682;9.170;2023-05-29T23:56:07;5.10;;;3.20;;
63444;SDS011;49573;47.682;9.170;2023-05-29T23:58:53;5.87;;;3.10;;
